Montenegro, Brazil
Current Conditions -  °F | °C
As of 10:00 PM on Saturday 20 Dec 2014 (Local Time) from SBCO Reporting Station
Thunderstorm Thunderstorm  
Wind Chill: 70°   Ceiling: 3500
Heat Index: 70°   Visibility: 2.5mi
Dew Point: 70°   Wind: 8mph
Humidity: 100%   Direction: 310°NW
Pressure: NA   Gusts: NA
Location:  29.69°S, 51.46°W
Report Text: SBCO 210000Z 31007KT 4000 -TSRA BKN035 FEW045CB OVC100 21/21 Q1008 RETS
Loading
Personal Weather Stations






























Interactive Weather Map New forecast layout! Learn more

10-Day Weather Forecast

Advertisements
Track Severe Weather on mobile